createdAt,value
2023-05-18T00:00:39.450Z,0.00
2023-05-18T00:01:39.478Z,0.00
2023-05-18T00:03:39.869Z,0.00
2023-05-18T00:04:39.662Z,0.00
2023-05-18T00:05:39.601Z,0.00
2023-05-18T00:06:39.973Z,0.00
2023-05-18T00:07:39.673Z,0.00
2023-05-18T00:08:39.707Z,0.00
2023-05-18T00:10:39.760Z,0.00
2023-05-18T00:11:39.791Z,0.00
2023-05-18T00:12:39.821Z,0.00
2023-05-18T00:13:40.154Z,0.00
2023-05-18T00:14:39.877Z,0.00
2023-05-18T00:15:39.935Z,0.00
2023-05-18T00:16:40.186Z,0.00
2023-05-18T00:17:40.015Z,0.00
2023-05-18T00:18:40.035Z,0.00
2023-05-18T00:19:40.034Z,0.00
2023-05-18T00:20:40.378Z,0.00
2023-05-18T00:21:40.103Z,0.00
2023-05-18T00:22:40.158Z,0.00
2023-05-18T00:23:40.170Z,0.00
2023-05-18T00:24:40.192Z,0.00
2023-05-18T00:25:40.229Z,0.00
2023-05-18T00:26:40.250Z,0.00
2023-05-18T00:27:40.586Z,0.00
2023-05-18T00:28:40.309Z,0.00
2023-05-18T00:29:40.348Z,0.00
2023-05-18T00:30:40.378Z,0.00
2023-05-18T00:31:40.479Z,0.00
2023-05-18T00:32:40.457Z,0.00
2023-05-18T00:33:40.470Z,0.00
2023-05-18T00:34:40.814Z,0.00
2023-05-18T00:35:40.545Z,0.00
2023-05-18T00:36:40.569Z,0.00
2023-05-18T00:37:40.605Z,0.00
2023-05-18T00:38:40.656Z,0.00
2023-05-18T00:39:40.659Z,0.00
2023-05-18T00:40:40.689Z,0.00
2023-05-18T00:41:41.023Z,0.00
2023-05-18T00:42:40.762Z,0.00
2023-05-18T00:43:40.787Z,0.00
2023-05-18T00:44:40.869Z,0.00
2023-05-18T00:45:40.926Z,0.00
2023-05-18T00:46:40.875Z,0.00
2023-05-18T00:47:40.930Z,0.00
2023-05-18T00:48:41.238Z,0.00
2023-05-18T00:49:40.973Z,0.00
2023-05-18T00:51:41.042Z,0.00
2023-05-18T00:52:41.071Z,0.00
2023-05-18T00:53:43.983Z,0.00
2023-05-18T00:54:41.155Z,0.00
2023-05-18T00:55:41.461Z,0.00
2023-05-18T00:56:41.203Z,0.00
2023-05-18T00:57:41.224Z,0.00
2023-05-18T00:59:41.281Z,0.00
2023-05-18T01:00:41.310Z,0.00
2023-05-18T01:01:41.600Z,0.00
2023-05-18T01:02:41.506Z,0.00
2023-05-18T01:03:41.434Z,0.00
2023-05-18T01:04:41.453Z,0.00
2023-05-18T01:05:41.474Z,0.00
2023-05-18T01:06:41.496Z,0.00
2023-05-18T01:07:41.828Z,0.00
2023-05-18T01:08:41.562Z,0.00
2023-05-18T01:09:41.596Z,0.00
2023-05-18T01:11:41.805Z,0.00
2023-05-18T01:12:41.788Z,0.00
2023-05-18T01:13:42.016Z,0.00
2023-05-18T01:14:41.749Z,0.00
2023-05-18T01:16:41.838Z,0.00
2023-05-18T01:19:41.921Z,0.00
2023-05-18T01:20:42.229Z,0.00
2023-05-18T01:21:41.960Z,0.00
2023-05-18T01:22:41.989Z,0.00
2023-05-18T01:23:42.024Z,0.00
2023-05-18T01:24:42.057Z,0.00
2023-05-18T01:25:42.085Z,0.00
2023-05-18T01:26:42.120Z,0.00
2023-05-18T01:27:42.475Z,0.00
2023-05-18T01:28:42.181Z,0.00
2023-05-18T01:29:42.210Z,0.00
2023-05-18T01:30:42.272Z,0.00
2023-05-18T01:31:42.270Z,0.00
2023-05-18T01:32:42.392Z,0.00
2023-05-18T01:33:42.334Z,0.00
2023-05-18T01:34:42.663Z,0.00
2023-05-18T01:35:42.399Z,0.00
2023-05-18T01:36:42.431Z,0.00
2023-05-18T01:38:44.083Z,0.00
2023-05-18T01:39:42.521Z,0.00
2023-05-18T01:40:42.549Z,0.00
2023-05-18T01:41:42.883Z,0.00
2023-05-18T01:42:42.609Z,0.00
2023-05-18T01:43:42.662Z,0.00
2023-05-18T01:44:42.681Z,0.00
2023-05-18T01:45:42.727Z,0.00
2023-05-18T01:46:42.761Z,0.00
2023-05-18T01:47:42.763Z,0.00
2023-05-18T01:48:43.094Z,0.00
2023-05-18T01:50:42.856Z,0.00
2023-05-18T01:51:42.892Z,0.00
2023-05-18T01:52:42.916Z,0.00
2023-05-18T01:53:42.943Z,0.00
2023-05-18T01:55:43.007Z,0.00
2023-05-18T01:56:43.348Z,0.00
2023-05-18T01:57:43.068Z,0.00
2023-05-18T01:58:43.099Z,0.00
2023-05-18T01:59:43.157Z,0.00
2023-05-18T02:00:43.167Z,0.00
2023-05-18T02:01:43.224Z,0.00
2023-05-18T02:02:43.370Z,0.00
2023-05-18T02:03:43.679Z,0.00
2023-05-18T02:04:43.293Z,0.00
2023-05-18T02:05:43.322Z,0.00
2023-05-18T02:06:43.355Z,0.00
2023-05-18T02:07:43.387Z,0.00
2023-05-18T02:08:43.403Z,0.00
2023-05-18T02:09:43.435Z,0.00
2023-05-18T02:10:43.792Z,0.00
2023-05-18T02:11:43.509Z,0.00
2023-05-18T02:12:43.542Z,0.00
2023-05-18T02:14:43.590Z,0.00
2023-05-18T02:15:43.654Z,0.00
2023-05-18T02:16:43.740Z,0.00
2023-05-18T02:17:44.045Z,0.00
2023-05-18T02:18:43.750Z,0.00
2023-05-18T02:19:43.744Z,0.00
2023-05-18T02:20:43.768Z,0.00
2023-05-18T02:21:43.804Z,0.00
2023-05-18T02:22:43.828Z,0.00
2023-05-18T02:23:43.862Z,0.00
2023-05-18T02:24:44.192Z,0.00
2023-05-18T02:25:43.918Z,0.00
2023-05-18T02:26:43.949Z,0.00
2023-05-18T02:27:43.979Z,0.00
2023-05-18T02:28:44.010Z,0.00
2023-05-18T02:29:44.045Z,0.00
2023-05-18T02:30:44.075Z,0.00
2023-05-18T02:31:44.501Z,0.00
2023-05-18T02:32:44.154Z,0.00
2023-05-18T02:33:44.162Z,0.00
2023-05-18T02:34:44.191Z,0.00
2023-05-18T02:35:44.223Z,0.00
2023-05-18T02:36:44.256Z,0.00
2023-05-18T02:37:44.315Z,0.00
2023-05-18T02:38:44.617Z,0.00
2023-05-18T02:39:44.347Z,0.00
2023-05-18T02:40:44.424Z,0.00
2023-05-18T02:41:44.412Z,0.00
2023-05-18T02:42:44.438Z,0.00
2023-05-18T02:43:44.476Z,0.00
2023-05-18T02:44:44.510Z,0.00
2023-05-18T02:45:44.870Z,0.00
2023-05-18T02:46:44.558Z,0.00
2023-05-18T02:47:44.648Z,0.00
2023-05-18T02:48:44.624Z,0.00
2023-05-18T02:49:44.654Z,0.00
2023-05-18T02:51:44.715Z,0.00
2023-05-18T02:52:45.053Z,0.00
2023-05-18T02:53:44.791Z,0.00
2023-05-18T02:54:44.808Z,0.00
2023-05-18T02:55:44.837Z,0.00
2023-05-18T02:56:44.870Z,0.00
2023-05-18T02:57:44.896Z,0.00
2023-05-18T02:58:44.990Z,0.00
2023-05-18T02:59:45.262Z,0.00
2023-05-18T03:00:44.988Z,0.00
2023-05-18T03:01:45.107Z,0.00
2023-05-18T03:03:28.511Z,0.00
2023-05-18T03:04:28.474Z,0.00
2023-05-18T03:05:28.621Z,0.00
2023-05-18T03:07:28.589Z,0.00
2023-05-18T03:08:28.603Z,0.00
2023-05-18T03:09:28.930Z,0.00
2023-05-18T03:10:28.659Z,0.00
2023-05-18T03:11:28.689Z,0.00
2023-05-18T03:12:28.714Z,0.00
2023-05-18T03:13:28.755Z,0.00
2023-05-18T03:14:28.787Z,0.00
2023-05-18T03:15:29.053Z,0.00
2023-05-18T03:16:29.242Z,0.00
2023-05-18T03:17:29.090Z,0.00
2023-05-18T03:18:28.903Z,0.00
2023-05-18T03:20:28.991Z,0.00
2023-05-18T03:22:29.023Z,0.00
2023-05-18T03:23:29.310Z,0.00
2023-05-18T03:24:29.087Z,0.00
2023-05-18T03:25:29.428Z,0.00
2023-05-18T03:27:29.174Z,0.00
2023-05-18T03:28:29.246Z,0.00
2023-05-18T03:29:31.455Z,0.00
2023-05-18T03:30:29.473Z,0.00
2023-05-18T03:31:29.344Z,0.00
2023-05-18T03:32:29.348Z,0.00
2023-05-18T03:33:29.368Z,0.00
2023-05-18T03:34:29.394Z,0.00
2023-05-18T03:35:29.922Z,0.00
2023-05-18T03:37:29.553Z,0.00
2023-05-18T03:38:29.559Z,0.00
2023-05-18T03:39:29.566Z,0.00
2023-05-18T03:40:29.567Z,0.00
2023-05-18T03:41:29.942Z,0.00
2023-05-18T03:42:29.630Z,0.00
2023-05-18T03:43:29.690Z,0.00
2023-05-18T03:44:29.701Z,0.00
2023-05-18T03:45:29.830Z,0.00
2023-05-18T03:47:29.814Z,0.00
2023-05-18T03:48:30.113Z,0.00
2023-05-18T03:49:29.866Z,5.63
2023-05-18T03:50:29.890Z,5.63
2023-05-18T03:51:29.903Z,5.63
2023-05-18T03:52:29.950Z,5.63
2023-05-18T03:53:29.993Z,5.63
2023-05-18T03:54:30.003Z,5.63
2023-05-18T03:55:30.497Z,5.63
2023-05-18T03:56:30.055Z,5.63
2023-05-18T03:57:30.099Z,5.63
2023-05-18T03:58:30.133Z,5.63
2023-05-18T03:59:30.151Z,5.63
2023-05-18T04:00:30.195Z,5.63
2023-05-18T04:01:30.240Z,5.63
2023-05-18T04:02:30.623Z,11.25
2023-05-18T04:03:30.330Z,11.25
2023-05-18T04:04:30.302Z,11.25
2023-05-18T04:05:30.520Z,11.25
2023-05-18T04:07:30.390Z,11.25
2023-05-18T04:08:30.520Z,11.25
2023-05-18T04:09:30.774Z,11.25
2023-05-18T04:10:30.483Z,11.25
2023-05-18T04:11:30.515Z,11.25
2023-05-18T04:12:30.539Z,11.25
2023-05-18T04:14:30.630Z,16.88
2023-05-18T04:15:30.792Z,16.88
2023-05-18T04:16:30.712Z,16.88
2023-05-18T04:17:30.718Z,16.88
2023-05-18T04:18:30.757Z,16.88
2023-05-18T04:19:30.848Z,16.88
2023-05-18T04:21:30.820Z,16.88
2023-05-18T04:22:31.146Z,16.88
2023-05-18T04:23:30.925Z,16.88
2023-05-18T04:24:30.914Z,22.50
2023-05-18T04:26:30.989Z,22.50
2023-05-18T04:27:30.995Z,22.50
2023-05-18T04:28:31.024Z,22.50
2023-05-18T04:29:31.406Z,22.50
2023-05-18T04:30:31.108Z,22.50
2023-05-18T04:31:31.158Z,22.50
2023-05-18T04:32:31.285Z,22.50
2023-05-18T04:33:31.196Z,22.50
2023-05-18T04:34:31.207Z,28.13
2023-05-18T04:35:31.378Z,28.13
2023-05-18T04:37:31.569Z,28.13
2023-05-18T04:38:31.328Z,28.13
2023-05-18T04:39:31.366Z,28.13
2023-05-18T04:40:31.393Z,28.13
2023-05-18T04:41:31.414Z,28.13
2023-05-18T04:42:31.481Z,28.13
2023-05-18T04:43:31.478Z,28.13
2023-05-18T04:44:31.806Z,28.13
2023-05-18T04:45:31.765Z,28.13
2023-05-18T04:46:31.615Z,28.13
2023-05-18T04:47:31.644Z,33.75
2023-05-18T04:49:31.660Z,33.75
2023-05-18T04:50:31.702Z,33.75
2023-05-18T04:51:32.023Z,33.75
2023-05-18T04:52:31.753Z,33.75
2023-05-18T04:53:31.786Z,33.75
2023-05-18T04:54:31.839Z,33.75
2023-05-18T04:55:31.971Z,33.75
2023-05-18T04:56:31.890Z,33.75
2023-05-18T04:59:32.289Z,33.75
2023-05-18T05:00:31.996Z,33.75
2023-05-18T05:01:32.084Z,33.75
2023-05-18T05:02:32.117Z,33.75
2023-05-18T05:03:32.165Z,33.75
2023-05-18T05:04:32.114Z,33.75
2023-05-18T05:05:32.339Z,33.75
2023-05-18T05:06:32.486Z,33.75
2023-05-18T05:07:32.205Z,33.75
2023-05-18T05:08:32.235Z,33.75
2023-05-18T05:09:32.260Z,39.38
2023-05-18T05:10:32.295Z,39.38
2023-05-18T05:12:32.360Z,39.38
2023-05-18T05:13:32.702Z,39.38
2023-05-18T05:14:32.515Z,39.38
2023-05-18T05:15:32.894Z,39.38
2023-05-18T05:17:32.592Z,39.38
2023-05-18T05:18:32.532Z,39.38
2023-05-18T05:19:32.591Z,39.38
2023-05-18T05:20:32.896Z,39.38
2023-05-18T05:21:32.636Z,39.38
2023-05-18T05:22:32.670Z,39.38
2023-05-18T05:23:32.709Z,39.38
2023-05-18T05:24:32.728Z,39.38
2023-05-18T05:25:33.125Z,39.38
2023-05-18T05:26:32.784Z,39.38
2023-05-18T05:27:33.106Z,39.38
2023-05-18T05:28:32.833Z,39.38
2023-05-18T05:29:32.871Z,39.38
2023-05-18T05:30:32.894Z,39.38
2023-05-18T05:31:32.987Z,39.38
2023-05-18T05:32:32.989Z,39.38
2023-05-18T05:33:32.993Z,39.38
2023-05-18T05:34:33.281Z,39.38
2023-05-18T05:35:34.117Z,39.38
2023-05-18T05:36:33.087Z,39.38
2023-05-18T05:37:33.140Z,39.38
2023-05-18T05:38:33.244Z,39.38
2023-05-18T05:39:33.167Z,39.38
2023-05-18T05:40:33.200Z,39.38
2023-05-18T05:41:33.242Z,39.38
2023-05-18T05:43:33.291Z,45.00
2023-05-18T05:44:33.355Z,45.00
2023-05-18T05:46:33.400Z,45.00
2023-05-18T05:47:33.818Z,45.00
2023-05-18T05:50:33.525Z,45.00
2023-05-18T05:51:33.531Z,45.00
2023-05-18T05:52:33.566Z,45.00
2023-05-18T05:53:33.908Z,45.00
2023-05-18T05:54:33.628Z,45.00
2023-05-18T05:55:33.767Z,45.00
2023-05-18T05:56:33.690Z,45.00
2023-05-18T05:57:33.820Z,45.00
2023-05-18T05:58:33.749Z,45.00
2023-05-18T05:59:34.077Z,45.00
2023-05-18T06:00:33.814Z,45.00
2023-05-18T06:01:33.898Z,45.00
2023-05-18T06:02:33.947Z,45.00
2023-05-18T06:04:34.048Z,45.00
2023-05-18T06:05:34.093Z,45.00
2023-05-18T06:06:34.295Z,45.00
2023-05-18T06:07:34.028Z,45.00
2023-05-18T06:08:34.156Z,45.00
2023-05-18T06:10:34.130Z,45.00
2023-05-18T06:11:34.141Z,45.00
2023-05-18T06:12:34.172Z,45.00
2023-05-18T06:13:34.511Z,45.00
2023-05-18T06:14:34.257Z,45.00
2023-05-18T06:15:34.266Z,45.00
2023-05-18T06:18:34.437Z,45.00
2023-05-18T06:19:34.396Z,45.00
2023-05-18T06:20:34.791Z,45.00
2023-05-18T06:21:34.445Z,45.00
2023-05-18T06:23:34.522Z,45.00
2023-05-18T06:24:34.540Z,45.00
2023-05-18T06:25:34.570Z,50.63
2023-05-18T06:26:34.623Z,50.63
2023-05-18T06:27:34.940Z,50.63
2023-05-18T06:28:34.665Z,50.63
2023-05-18T06:29:34.698Z,50.63
2023-05-18T06:30:34.720Z,50.63
2023-05-18T06:33:34.818Z,50.63
2023-05-18T06:34:35.148Z,50.63
2023-05-18T06:35:34.877Z,50.63
2023-05-18T06:37:34.964Z,50.63
2023-05-18T06:39:35.144Z,50.63
2023-05-18T06:41:35.314Z,50.63
2023-05-18T06:42:35.097Z,50.63
2023-05-18T06:44:35.163Z,50.63
2023-05-18T06:45:37.053Z,50.63
2023-05-18T06:46:35.343Z,50.63
2023-05-18T06:47:35.302Z,50.63
2023-05-18T06:48:35.529Z,50.63
2023-05-18T06:49:35.321Z,50.63
2023-05-18T06:50:35.340Z,50.63
2023-05-18T06:51:35.367Z,50.63
2023-05-18T06:52:35.398Z,50.63
2023-05-18T06:53:35.489Z,50.63
2023-05-18T06:54:35.457Z,50.63
2023-05-18T06:55:35.831Z,50.63
2023-05-18T06:57:35.557Z,50.63
2023-05-18T06:58:35.581Z,50.63
2023-05-18T07:00:35.655Z,50.63
2023-05-18T07:01:35.747Z,50.63
2023-05-18T07:03:36.082Z,50.63
2023-05-18T07:04:35.774Z,50.63
2023-05-18T07:05:39.215Z,50.63
2023-05-18T07:06:35.830Z,50.63
2023-05-18T07:07:35.883Z,50.63
2023-05-18T07:08:35.898Z,50.63
2023-05-18T07:10:36.298Z,50.63
2023-05-18T07:11:35.991Z,50.63
2023-05-18T07:12:36.010Z,50.63
2023-05-18T07:14:36.083Z,50.63
2023-05-18T07:15:36.178Z,50.63
2023-05-18T07:16:36.201Z,50.63
2023-05-18T07:18:36.238Z,50.63
2023-05-18T07:19:36.230Z,50.63
2023-05-18T07:20:36.262Z,50.63
2023-05-18T07:21:36.286Z,50.63
2023-05-18T07:22:36.319Z,50.63
2023-05-18T07:23:36.645Z,50.63
2023-05-18T07:24:36.378Z,50.63
2023-05-18T07:25:36.419Z,50.63
2023-05-18T07:26:36.476Z,50.63
2023-05-18T07:27:36.468Z,50.63
2023-05-18T07:28:36.514Z,50.63
2023-05-18T07:29:36.541Z,50.63
2023-05-18T07:30:36.865Z,50.63
2023-05-18T07:32:36.667Z,50.63
2023-05-18T07:33:38.536Z,50.63
2023-05-18T07:34:36.705Z,50.63
2023-05-18T07:35:36.777Z,50.63
2023-05-18T07:36:37.074Z,50.63
2023-05-18T07:37:36.784Z,50.63
2023-05-18T07:38:36.812Z,50.63
2023-05-18T07:39:36.847Z,50.63
2023-05-18T07:40:36.872Z,50.63
2023-05-18T07:41:36.906Z,50.63
2023-05-18T07:42:36.984Z,50.63
2023-05-18T07:43:36.983Z,56.25
2023-05-18T07:44:37.017Z,56.25
2023-05-18T07:45:37.048Z,56.25
2023-05-18T07:46:37.085Z,56.25
2023-05-18T07:47:37.192Z,56.25
2023-05-18T07:48:39.676Z,56.25
2023-05-18T07:50:37.198Z,56.25
2023-05-18T07:51:37.238Z,56.25
2023-05-18T07:52:37.260Z,56.25
2023-05-18T07:53:37.290Z,56.25
2023-05-18T07:54:37.368Z,56.25
2023-05-18T07:55:37.639Z,56.25
2023-05-18T07:56:37.374Z,56.25
2023-05-18T07:57:37.459Z,56.25
2023-05-18T08:01:37.651Z,56.25
2023-05-18T08:02:38.129Z,56.25
2023-05-18T08:03:37.929Z,56.25
2023-05-18T08:04:37.614Z,56.25
2023-05-18T08:05:37.650Z,56.25
2023-05-18T08:06:37.714Z,56.25
2023-05-18T08:07:37.725Z,56.25
2023-05-18T08:09:38.095Z,56.25
2023-05-18T08:10:37.806Z,56.25
2023-05-18T08:11:37.855Z,56.25
2023-05-18T08:12:37.878Z,56.25
2023-05-18T08:13:37.909Z,56.25
2023-05-18T08:14:37.929Z,56.25
2023-05-18T08:15:37.978Z,56.25
2023-05-18T08:16:38.300Z,56.25
2023-05-18T08:18:38.171Z,56.25
2023-05-18T08:19:39.829Z,56.25
2023-05-18T08:20:38.117Z,56.25
2023-05-18T08:21:38.168Z,56.25
2023-05-18T08:22:38.190Z,56.25
2023-05-18T08:24:38.544Z,56.25
2023-05-18T08:25:38.279Z,56.25
2023-05-18T08:26:38.308Z,56.25
2023-05-18T08:27:38.338Z,56.25
2023-05-18T08:28:38.375Z,56.25
2023-05-18T08:29:38.447Z,56.25
2023-05-18T08:30:38.437Z,56.25
2023-05-18T08:31:38.827Z,56.25
2023-05-18T08:32:38.687Z,56.25
2023-05-18T08:33:38.533Z,56.25
2023-05-18T08:34:38.596Z,56.25
2023-05-18T08:35:38.598Z,56.25
2023-05-18T08:36:38.624Z,56.25
2023-05-18T08:37:38.644Z,56.25
2023-05-18T08:38:38.998Z,56.25
2023-05-18T08:39:38.763Z,56.25
2023-05-18T08:40:38.744Z,56.25
2023-05-18T08:41:38.772Z,56.25
2023-05-18T08:42:49.342Z,61.88
2023-05-18T08:43:38.831Z,61.88
2023-05-18T08:44:38.875Z,61.88
2023-05-18T08:45:39.187Z,61.88
2023-05-18T08:46:38.914Z,61.88
2023-05-18T08:47:39.048Z,61.88
2023-05-18T08:48:39.027Z,61.88
2023-05-18T08:49:39.008Z,61.88
2023-05-18T08:50:39.068Z,61.88
2023-05-18T08:51:39.077Z,61.88
2023-05-18T08:52:39.441Z,61.88
2023-05-18T08:53:39.159Z,61.88
2023-05-18T08:54:39.174Z,61.88
2023-05-18T08:55:39.203Z,61.88
2023-05-18T08:56:39.271Z,61.88
2023-05-18T08:57:39.266Z,61.88
2023-05-18T08:58:39.316Z,61.88
2023-05-18T09:00:39.409Z,61.88
2023-05-18T09:01:39.478Z,61.88
2023-05-18T09:02:39.455Z,61.88
2023-05-18T09:03:39.488Z,61.88
2023-05-18T09:04:39.539Z,61.88
2023-05-18T09:05:39.517Z,61.88
2023-05-18T09:06:39.866Z,61.88
2023-05-18T09:07:39.574Z,61.88
2023-05-18T09:08:39.627Z,61.88
2023-05-18T09:11:39.710Z,61.88
2023-05-18T09:12:39.732Z,61.88
2023-05-18T09:13:40.064Z,61.88
2023-05-18T09:14:39.811Z,56.25
2023-05-18T09:15:39.892Z,61.88
2023-05-18T09:16:39.898Z,67.50
2023-05-18T09:17:39.953Z,61.88
2023-05-18T09:18:39.939Z,61.88
2023-05-18T09:19:39.963Z,67.50
2023-05-18T09:20:40.282Z,61.88
2023-05-18T09:21:40.032Z,61.88
2023-05-18T09:22:40.072Z,67.50
2023-05-18T09:23:40.074Z,67.50
2023-05-18T09:24:40.134Z,67.50
2023-05-18T09:25:40.187Z,67.50
2023-05-18T09:26:40.168Z,67.50
2023-05-18T09:27:40.497Z,73.13
2023-05-18T09:28:40.234Z,67.50
2023-05-18T09:29:40.284Z,67.50
2023-05-18T09:30:40.340Z,67.50
2023-05-18T09:31:40.362Z,61.88
2023-05-18T09:32:40.402Z,61.88
2023-05-18T09:33:40.529Z,61.88
2023-05-18T09:34:40.731Z,61.88
2023-05-18T09:35:40.568Z,67.50
2023-05-18T09:36:40.529Z,67.50
2023-05-18T09:37:40.549Z,67.50
2023-05-18T09:38:40.618Z,61.88
2023-05-18T09:39:40.581Z,61.88
2023-05-18T09:40:40.723Z,67.50
2023-05-18T09:41:40.956Z,73.13
2023-05-18T09:42:40.834Z,73.13
2023-05-18T09:43:40.759Z,73.13
2023-05-18T09:44:40.756Z,73.13
2023-05-18T09:45:40.770Z,73.13
2023-05-18T09:46:40.859Z,73.13
2023-05-18T09:47:40.869Z,73.13
2023-05-18T09:48:41.192Z,73.13
2023-05-18T09:49:41.027Z,73.13
2023-05-18T09:50:40.941Z,73.13
2023-05-18T09:51:41.045Z,73.13
2023-05-18T09:52:40.992Z,73.13
2023-05-18T09:53:41.027Z,73.13
2023-05-18T09:54:41.379Z,73.13
2023-05-18T09:55:41.115Z,73.13
2023-05-18T09:56:41.122Z,73.13
2023-05-18T09:57:41.157Z,73.13
2023-05-18T09:58:41.197Z,73.13
2023-05-18T09:59:41.225Z,73.13
2023-05-18T10:00:41.595Z,73.13
2023-05-18T10:01:41.305Z,73.13
2023-05-18T10:02:41.390Z,73.13
2023-05-18T10:03:41.361Z,73.13
2023-05-18T10:05:41.403Z,73.13
2023-05-18T10:06:41.765Z,73.13
2023-05-18T10:07:41.481Z,73.13
2023-05-18T10:11:41.625Z,78.75
2023-05-18T10:12:41.650Z,78.75
2023-05-18T10:13:42.008Z,78.75
2023-05-18T10:14:41.768Z,78.75
2023-05-18T10:15:41.749Z,78.75
2023-05-18T10:16:41.812Z,78.75
2023-05-18T10:18:41.852Z,78.75
2023-05-18T10:19:41.958Z,78.75
2023-05-18T10:20:42.191Z,78.75
2023-05-18T10:21:42.016Z,84.38
2023-05-18T10:22:41.969Z,84.38
2023-05-18T10:23:41.993Z,84.38
2023-05-18T10:24:42.017Z,84.38
2023-05-18T10:25:42.049Z,84.38
2023-05-18T10:26:42.093Z,78.75
2023-05-18T10:27:42.144Z,84.38
2023-05-18T10:28:42.169Z,78.75
2023-05-18T10:29:42.211Z,84.38
2023-05-18T10:30:42.239Z,78.75
2023-05-18T10:31:42.242Z,78.75
2023-05-18T10:32:42.292Z,84.38
2023-05-18T10:33:42.656Z,84.38
2023-05-18T10:34:42.334Z,84.38
2023-05-18T10:35:42.368Z,84.38
2023-05-18T10:36:42.448Z,84.38
2023-05-18T10:38:42.466Z,84.38
2023-05-18T10:39:42.494Z,84.38
2023-05-18T10:40:42.831Z,90.00
2023-05-18T10:41:42.563Z,90.00
2023-05-18T10:42:42.589Z,90.00
2023-05-18T10:43:42.710Z,90.00
2023-05-18T10:44:42.663Z,90.00
2023-05-18T10:45:42.696Z,90.00
2023-05-18T10:46:42.838Z,84.38
2023-05-18T10:47:43.207Z,84.38
2023-05-18T10:48:42.808Z,84.38
2023-05-18T10:49:42.823Z,90.00
2023-05-18T10:50:42.854Z,84.38
2023-05-18T10:51:42.888Z,90.00
2023-05-18T10:52:42.924Z,90.00
2023-05-18T10:53:42.955Z,95.63
2023-05-18T10:54:43.287Z,95.63
2023-05-18T10:55:43.006Z,95.63
2023-05-18T10:56:43.047Z,95.63
2023-05-18T10:57:43.091Z,95.63
2023-05-18T10:58:43.167Z,95.63
2023-05-18T10:59:44.382Z,90.00
2023-05-18T11:00:43.170Z,90.00
2023-05-18T11:01:43.567Z,90.00
2023-05-18T11:02:43.396Z,90.00
2023-05-18T11:03:43.266Z,90.00
2023-05-18T11:04:43.330Z,90.00
2023-05-18T11:05:43.346Z,90.00
2023-05-18T11:06:43.363Z,90.00
2023-05-18T11:07:43.407Z,90.00
2023-05-18T11:08:43.425Z,90.00
2023-05-18T11:09:43.458Z,90.00
2023-05-18T11:10:43.486Z,90.00
2023-05-18T11:11:43.530Z,90.00
2023-05-18T11:12:43.580Z,90.00
2023-05-18T11:13:43.629Z,90.00
2023-05-18T11:14:43.622Z,90.00
2023-05-18T11:15:43.691Z,95.63
2023-05-18T11:16:43.807Z,95.63
2023-05-18T11:17:43.736Z,101.25
2023-05-18T11:18:43.792Z,106.88
2023-05-18T11:19:43.789Z,106.88
2023-05-18T11:20:44.114Z,112.50
2023-05-18T11:21:43.854Z,112.50
2023-05-18T11:22:43.876Z,112.50
2023-05-18T11:23:43.917Z,112.50
2023-05-18T11:24:43.940Z,106.88
2023-05-18T11:25:43.980Z,106.88
2023-05-18T11:26:44.018Z,106.88
2023-05-18T11:27:44.034Z,106.88
2023-05-18T11:28:44.111Z,106.88
2023-05-18T11:30:44.136Z,95.63
2023-05-18T11:32:44.590Z,90.00
2023-05-18T11:33:44.282Z,95.63
2023-05-18T11:34:44.269Z,101.25
2023-05-18T11:35:44.301Z,101.25
2023-05-18T11:36:44.335Z,106.88
2023-05-18T11:37:44.418Z,106.88
2023-05-18T11:38:44.398Z,106.88
2023-05-18T11:41:44.566Z,112.50
2023-05-18T11:42:44.523Z,112.50
2023-05-18T11:43:44.557Z,112.50
2023-05-18T11:44:44.594Z,112.50
2023-05-18T11:45:44.630Z,112.50
2023-05-18T11:46:44.959Z,118.13
2023-05-18T11:47:44.785Z,118.13
2023-05-18T11:48:44.897Z,118.13
2023-05-18T11:49:44.761Z,118.13
2023-05-18T11:50:44.786Z,118.13
2023-05-18T11:51:44.822Z,112.50
2023-05-18T11:52:44.853Z,106.88
2023-05-18T11:53:44.880Z,112.50
2023-05-18T11:54:44.963Z,112.50
2023-05-18T11:55:44.946Z,112.50
2023-05-18T11:56:44.984Z,112.50
2023-05-18T11:57:45.016Z,112.50
2023-05-18T11:58:45.039Z,118.13
2023-05-18T11:59:45.377Z,118.13
2023-05-18T12:00:45.157Z,118.13
2023-05-18T12:01:45.254Z,118.13
2023-05-18T12:02:45.577Z,112.50
2023-05-18T12:03:47.797Z,112.50
2023-05-18T12:04:45.304Z,112.50
2023-05-18T12:05:45.577Z,112.50
2023-05-18T12:06:45.297Z,112.50
2023-05-18T12:07:45.362Z,118.13
2023-05-18T12:08:45.365Z,123.75
2023-05-18T12:09:45.402Z,129.38
2023-05-18T12:10:45.455Z,135.00
2023-05-18T12:11:45.762Z,135.00
2023-05-18T12:12:45.511Z,135.00
2023-05-18T12:13:45.543Z,135.00
2023-05-18T12:15:45.613Z,140.63
2023-05-18T12:16:45.711Z,135.00
2023-05-18T12:17:46.006Z,123.75
2023-05-18T12:18:45.726Z,123.75
2023-05-18T12:19:45.720Z,118.13
2023-05-18T12:20:45.818Z,112.50
2023-05-18T12:21:45.798Z,112.50
2023-05-18T12:22:45.829Z,112.50
2023-05-18T12:23:45.856Z,112.50
2023-05-18T12:24:46.141Z,106.88
2023-05-18T12:25:45.977Z,118.13
2023-05-18T12:26:45.949Z,118.13
2023-05-18T12:27:46.048Z,118.13
2023-05-18T12:28:46.017Z,118.13
2023-05-18T12:29:46.051Z,123.75
2023-05-18T12:30:46.106Z,123.75
2023-05-18T12:31:46.127Z,123.75
2023-05-18T12:32:46.262Z,129.38
2023-05-18T12:34:46.216Z,135.00
2023-05-18T12:35:46.251Z,140.63
2023-05-18T12:36:46.306Z,140.63
2023-05-18T12:37:46.662Z,146.25
2023-05-18T12:38:46.367Z,140.63
2023-05-18T12:39:46.378Z,140.63
2023-05-18T12:40:46.438Z,135.00
2023-05-18T12:41:46.757Z,129.38
2023-05-18T12:42:46.483Z,123.75
2023-05-18T12:43:46.524Z,123.75
2023-05-18T12:44:46.565Z,123.75
2023-05-18T12:45:46.595Z,135.00
2023-05-18T12:46:46.675Z,140.63
2023-05-18T12:47:46.748Z,146.25
2023-05-18T12:48:46.679Z,151.88
2023-05-18T12:50:47.092Z,146.25
2023-05-18T12:51:46.773Z,135.00
2023-05-18T12:52:46.829Z,123.75
2023-05-18T12:53:46.842Z,123.75
2023-05-18T12:54:46.873Z,112.50
2023-05-18T12:55:46.904Z,112.50
2023-05-18T12:56:47.237Z,118.13
2023-05-18T12:57:46.995Z,118.13
2023-05-18T12:58:47.013Z,118.13
2023-05-18T12:59:47.051Z,118.13
2023-05-18T13:00:47.066Z,123.75
2023-05-18T13:01:47.263Z,123.75
2023-05-18T13:02:47.436Z,129.38
2023-05-18T13:03:47.253Z,129.38
2023-05-18T13:04:47.250Z,135.00
2023-05-18T13:05:47.240Z,140.63
2023-05-18T13:06:47.266Z,140.63
2023-05-18T13:07:47.299Z,146.25
2023-05-18T13:08:47.680Z,151.88
2023-05-18T13:09:47.364Z,151.88
2023-05-18T13:11:47.464Z,146.25
2023-05-18T13:12:47.469Z,146.25
2023-05-18T13:13:47.519Z,146.25
2023-05-18T13:14:47.533Z,140.63
2023-05-18T13:15:47.868Z,129.38
2023-05-18T13:16:47.650Z,123.75
2023-05-18T13:17:47.659Z,123.75
2023-05-18T13:18:47.784Z,135.00
2023-05-18T13:19:48.031Z,140.63
2023-05-18T13:20:47.845Z,123.75
2023-05-18T13:21:47.803Z,140.63
2023-05-18T13:22:48.222Z,135.00
2023-05-18T13:23:47.827Z,140.63
2023-05-18T13:24:47.898Z,135.00
2023-05-18T13:25:47.904Z,135.00
2023-05-18T13:26:47.934Z,135.00
2023-05-18T13:27:47.972Z,135.00
2023-05-18T13:28:48.047Z,140.63
2023-05-18T13:29:48.282Z,151.88
2023-05-18T13:30:48.061Z,163.13
2023-05-18T13:31:48.174Z,163.13
2023-05-18T13:32:48.145Z,163.13
2023-05-18T13:33:48.177Z,163.13
2023-05-18T13:34:48.697Z,168.75
2023-05-18T13:35:48.228Z,168.75
2023-05-18T13:36:48.560Z,168.75
2023-05-18T13:37:48.288Z,163.13
2023-05-18T13:40:48.423Z,157.50
2023-05-18T13:41:48.447Z,157.50
2023-05-18T13:42:48.458Z,157.50
2023-05-18T13:43:48.791Z,151.88
2023-05-18T13:44:48.533Z,151.88
2023-05-18T13:45:48.607Z,157.50
2023-05-18T13:46:48.613Z,163.13
2023-05-18T13:47:48.656Z,168.75
2023-05-18T13:48:48.677Z,163.13
2023-05-18T13:49:48.691Z,157.50
2023-05-18T13:50:49.049Z,146.25
2023-05-18T13:51:48.758Z,157.50
2023-05-18T13:52:48.837Z,157.50
2023-05-18T13:53:48.824Z,157.50
2023-05-18T13:54:48.900Z,151.88
2023-05-18T13:55:48.923Z,146.25
2023-05-18T13:56:48.953Z,146.25
2023-05-18T13:57:49.272Z,146.25
2023-05-18T13:58:49.020Z,140.63
2023-05-18T13:59:49.183Z,140.63
2023-05-18T14:00:49.147Z,146.25
2023-05-18T14:01:49.165Z,146.25
2023-05-18T14:02:49.312Z,146.25
2023-05-18T14:03:49.268Z,146.25
2023-05-18T14:04:49.514Z,146.25
2023-05-18T14:05:49.256Z,146.25
2023-05-18T14:06:49.260Z,146.25
2023-05-18T14:07:49.311Z,151.88
2023-05-18T14:08:49.338Z,151.88
2023-05-18T14:09:49.401Z,157.50
2023-05-18T14:10:49.399Z,157.50
2023-05-18T14:11:51.704Z,163.13
2023-05-18T14:12:49.480Z,157.50